createdAt,value
2018-05-21T00:00:43.328Z,16.30
2018-05-21T00:03:10.852Z,16.30
2018-05-21T00:05:38.360Z,16.30
2018-05-21T00:08:05.897Z,16.20
2018-05-21T00:10:33.424Z,16.20
2018-05-21T00:13:00.934Z,16.20
2018-05-21T00:15:28.461Z,16.10
2018-05-21T00:17:56.738Z,16.10
2018-05-21T00:20:24.264Z,16.10
2018-05-21T00:22:51.921Z,16.10
2018-05-21T00:25:19.426Z,16.10
2018-05-21T00:27:46.957Z,16.00
2018-05-21T00:30:14.496Z,16.00
2018-05-21T00:32:42.012Z,16.00
2018-05-21T00:35:09.548Z,16.00
2018-05-21T00:37:37.068Z,15.90
2018-05-21T00:40:04.604Z,15.90
2018-05-21T00:42:32.115Z,15.90
2018-05-21T00:44:59.671Z,15.90
2018-05-21T00:47:27.175Z,15.90
2018-05-21T00:49:54.717Z,15.90
2018-05-21T00:52:22.579Z,15.90
2018-05-21T00:55:01.807Z,15.90
2018-05-21T00:57:29.327Z,15.90
2018-05-21T00:59:57.572Z,15.90
2018-05-21T01:02:25.324Z,15.90
2018-05-21T01:04:52.856Z,15.90
2018-05-21T01:07:20.383Z,15.80
2018-05-21T01:09:47.904Z,15.80
2018-05-21T01:12:16.183Z,15.80
2018-05-21T01:14:43.692Z,15.80
2018-05-21T01:17:11.198Z,15.80
2018-05-21T01:19:39.111Z,15.80
2018-05-21T01:22:06.644Z,15.80
2018-05-21T01:24:34.163Z,15.70
2018-05-21T01:27:01.685Z,15.80
2018-05-21T01:29:29.207Z,15.70
2018-05-21T01:31:56.764Z,15.70
2018-05-21T01:34:24.271Z,15.70
2018-05-21T01:36:51.805Z,15.70
2018-05-21T01:39:19.347Z,15.70
2018-05-21T01:41:49.840Z,15.70
2018-05-21T01:44:17.361Z,15.70
2018-05-21T01:46:44.943Z,15.70
2018-05-21T01:49:12.468Z,15.60
2018-05-21T01:51:40.254Z,15.70
2018-05-21T01:54:08.180Z,15.70
2018-05-21T01:56:35.725Z,15.60
2018-05-21T01:59:03.255Z,15.60
2018-05-21T02:01:30.790Z,15.60
2018-05-21T02:03:58.312Z,15.60
2018-05-21T02:06:25.836Z,15.60
2018-05-21T02:08:53.343Z,15.60
2018-05-21T02:11:20.873Z,15.60
2018-05-21T02:13:48.403Z,15.50
2018-05-21T02:16:15.957Z,15.50
2018-05-21T02:18:43.476Z,15.60
2018-05-21T02:21:11.015Z,15.50
2018-05-21T02:23:38.527Z,15.50
2018-05-21T02:26:06.083Z,15.50
2018-05-21T02:28:33.604Z,15.40
2018-05-21T02:31:01.682Z,15.40
2018-05-21T02:33:29.208Z,15.40
2018-05-21T02:35:56.759Z,15.40
2018-05-21T02:38:24.281Z,15.40
2018-05-21T02:40:51.820Z,15.30
2018-05-21T02:43:19.336Z,15.40
2018-05-21T02:45:46.874Z,15.30
2018-05-21T02:48:14.385Z,15.40
2018-05-21T02:50:41.928Z,15.30
2018-05-21T02:53:09.440Z,15.30
2018-05-21T02:55:36.955Z,15.30
2018-05-21T02:58:04.469Z,15.30
2018-05-21T03:00:31.982Z,15.20
2018-05-21T03:03:00.025Z,15.20
2018-05-21T03:05:27.554Z,15.20
2018-05-21T03:07:55.088Z,15.20
2018-05-21T03:10:22.620Z,15.20
2018-05-21T03:12:50.148Z,15.20
2018-05-21T03:15:17.663Z,15.10
2018-05-21T03:17:45.181Z,15.10
2018-05-21T03:20:12.707Z,15.10
2018-05-21T03:22:44.782Z,15.10
2018-05-21T03:25:12.384Z,15.10
2018-05-21T03:27:39.920Z,15.10
2018-05-21T03:30:07.440Z,15.10
2018-05-21T03:32:34.960Z,15.10
2018-05-21T03:35:02.474Z,15.00
2018-05-21T03:37:30.008Z,15.10
2018-05-21T03:39:57.524Z,15.10
2018-05-21T03:42:25.041Z,15.10
2018-05-21T03:44:52.551Z,15.10
2018-05-21T03:47:20.063Z,15.10
2018-05-21T03:49:47.571Z,15.10
2018-05-21T03:52:15.089Z,15.10
2018-05-21T03:54:42.618Z,15.00
2018-05-21T03:57:10.136Z,15.10
2018-05-21T03:59:49.416Z,15.00
2018-05-21T04:02:28.744Z,15.00
2018-05-21T04:04:56.261Z,15.00
2018-05-21T04:07:24.913Z,15.00
2018-05-21T04:09:52.634Z,15.00
2018-05-21T04:12:20.157Z,15.10
2018-05-21T04:14:47.666Z,15.10
2018-05-21T04:17:15.170Z,15.10
2018-05-21T04:19:42.704Z,15.10
2018-05-21T04:22:10.210Z,15.10
2018-05-21T04:24:38.131Z,15.10
2018-05-21T04:27:05.656Z,15.10
2018-05-21T04:29:33.162Z,15.20
2018-05-21T04:32:00.696Z,15.10
2018-05-21T04:34:28.216Z,15.20
2018-05-21T04:36:55.784Z,15.20
2018-05-21T04:39:23.300Z,15.30
2018-05-21T04:41:50.819Z,15.30
2018-05-21T04:44:19.225Z,15.30
2018-05-21T04:46:46.749Z,15.30
2018-05-21T04:49:14.422Z,15.40
2018-05-21T04:51:41.943Z,15.40
2018-05-21T04:54:09.474Z,15.50
2018-05-21T04:56:36.984Z,15.50
2018-05-21T04:59:04.503Z,15.50
2018-05-21T05:01:32.071Z,15.50
2018-05-21T05:03:59.568Z,15.50
2018-05-21T05:06:27.107Z,15.50
2018-05-21T05:08:54.634Z,15.60
2018-05-21T05:11:22.148Z,15.60
2018-05-21T05:13:49.712Z,15.60
2018-05-21T05:16:17.223Z,15.70
2018-05-21T05:18:44.747Z,15.70
2018-05-21T05:21:12.350Z,15.70
2018-05-21T05:23:39.809Z,15.70
2018-05-21T05:26:07.336Z,15.80
2018-05-21T05:28:34.854Z,15.80
2018-05-21T05:31:02.368Z,15.90
2018-05-21T05:33:29.893Z,15.90
2018-05-21T05:35:57.967Z,16.00
2018-05-21T05:38:25.508Z,16.00
2018-05-21T05:40:53.029Z,16.10
2018-05-21T05:43:22.021Z,16.50
2018-05-21T05:45:49.543Z,16.50
2018-05-21T05:48:17.075Z,16.60
2018-05-21T05:50:44.599Z,16.60
2018-05-21T05:53:12.139Z,16.70
2018-05-21T05:55:39.648Z,16.80
2018-05-21T05:58:07.985Z,17.50
2018-05-21T06:00:36.256Z,17.50
2018-05-21T06:03:03.796Z,18.30
2018-05-21T06:05:31.314Z,18.40
2018-05-21T06:07:58.881Z,20.30
2018-05-21T06:10:26.404Z,23.20
2018-05-21T06:12:53.948Z,25.60
2018-05-21T06:15:21.469Z,27.60
2018-05-21T06:17:49.010Z,29.30
2018-05-21T06:20:16.531Z,30.50
2018-05-21T06:22:44.056Z,31.50
2018-05-21T06:27:46.347Z,33.10
2018-05-21T06:30:13.892Z,34.10
2018-05-21T06:32:41.403Z,34.80
2018-05-21T06:35:08.927Z,35.70
2018-05-21T06:37:36.448Z,35.90
2018-05-21T06:40:04.479Z,36.40
2018-05-21T06:42:31.998Z,36.60
2018-05-21T06:44:59.529Z,36.70
2018-05-21T06:47:27.097Z,37.20
2018-05-21T06:49:55.395Z,38.30
2018-05-21T06:52:22.916Z,38.30
2018-05-21T06:54:50.437Z,38.50
2018-05-21T06:57:17.979Z,38.40
2018-05-21T06:59:45.548Z,38.70
2018-05-21T07:02:13.052Z,38.80
2018-05-21T07:04:40.598Z,38.40
2018-05-21T07:07:08.122Z,37.20
2018-05-21T07:09:35.646Z,34.50
2018-05-21T07:12:03.181Z,33.60
2018-05-21T07:14:30.703Z,32.60
2018-05-21T07:16:58.218Z,32.20
2018-05-21T07:19:25.738Z,31.70
2018-05-21T07:21:53.262Z,30.80
2018-05-21T07:24:20.895Z,30.30
2018-05-21T07:26:48.356Z,30.10
2018-05-21T07:29:15.911Z,29.80
2018-05-21T07:31:43.444Z,29.50
2018-05-21T07:34:11.001Z,29.00
2018-05-21T07:36:38.629Z,28.80
2018-05-21T07:39:06.188Z,28.50
2018-05-21T07:41:33.703Z,28.50
2018-05-21T07:44:01.235Z,28.70
2018-05-21T07:46:28.752Z,29.10
2018-05-21T07:48:57.283Z,30.40
2018-05-21T07:51:24.936Z,31.70
2018-05-21T07:53:52.449Z,32.50
2018-05-21T07:56:19.977Z,33.30
2018-05-21T07:58:47.524Z,34.30
2018-05-21T08:01:15.048Z,35.30
2018-05-21T08:03:42.579Z,35.80
2018-05-21T08:06:10.110Z,35.90
2018-05-21T08:08:37.663Z,36.30
2018-05-21T08:11:05.349Z,36.90
2018-05-21T08:13:32.879Z,37.30
2018-05-21T08:16:02.937Z,38.60
2018-05-21T08:18:31.395Z,39.00
2018-05-21T08:20:58.927Z,39.00
2018-05-21T08:23:27.215Z,39.50
2018-05-21T08:25:55.501Z,39.60
2018-05-21T08:28:23.780Z,39.30
2018-05-21T08:30:51.331Z,39.30
2018-05-21T08:33:19.633Z,38.10
2018-05-21T08:35:47.947Z,36.80
2018-05-21T08:38:15.464Z,36.80
2018-05-21T08:40:42.980Z,36.00
2018-05-21T08:43:11.271Z,34.40
2018-05-21T08:45:38.787Z,34.40
2018-05-21T08:48:06.327Z,33.70
2018-05-21T08:50:33.843Z,33.00
2018-05-21T08:53:01.362Z,32.60
2018-05-21T08:55:28.884Z,32.20
2018-05-21T08:57:56.397Z,31.80
2018-05-21T09:00:23.917Z,31.50
2018-05-21T09:02:51.448Z,31.10
2018-05-21T09:05:18.962Z,30.80
2018-05-21T09:07:46.490Z,30.50
2018-05-21T09:10:14.774Z,29.80
2018-05-21T09:12:42.287Z,29.80
2018-05-21T09:15:09.800Z,29.40
2018-05-21T09:17:37.316Z,29.00
2018-05-21T09:20:04.836Z,28.60
2018-05-21T09:22:32.376Z,28.40
2018-05-21T09:24:59.909Z,28.40
2018-05-21T09:27:27.420Z,28.30
2018-05-21T09:29:54.956Z,28.20
2018-05-21T09:32:22.631Z,28.10
2018-05-21T09:34:50.045Z,28.00
2018-05-21T09:37:18.332Z,27.90
2018-05-21T09:39:45.863Z,27.90
2018-05-21T09:42:13.385Z,27.80
2018-05-21T09:44:40.902Z,27.80
2018-05-21T09:47:08.407Z,27.70
2018-05-21T09:49:35.927Z,27.70
2018-05-21T09:52:03.444Z,27.70
2018-05-21T09:54:30.959Z,27.60
2018-05-21T09:56:58.479Z,27.50
2018-05-21T09:59:25.991Z,27.50
2018-05-21T10:01:53.825Z,27.40
2018-05-21T10:04:21.340Z,27.30
2018-05-21T10:06:48.846Z,27.30
2018-05-21T10:09:16.364Z,27.20
2018-05-21T10:11:43.887Z,27.10
2018-05-21T10:14:11.409Z,27.10
2018-05-21T10:16:38.928Z,27.10
2018-05-21T10:19:06.452Z,27.10
2018-05-21T10:21:34.731Z,26.80
2018-05-21T10:24:02.252Z,26.80
2018-05-21T10:26:29.770Z,26.90
2018-05-21T10:28:57.289Z,26.80
2018-05-21T10:31:24.824Z,26.70
2018-05-21T10:33:52.348Z,26.70
2018-05-21T10:36:19.868Z,26.80
2018-05-21T10:38:47.380Z,26.80
2018-05-21T10:41:14.904Z,26.70
2018-05-21T10:43:42.448Z,26.70
2018-05-21T10:46:09.971Z,26.50
2018-05-21T10:48:37.491Z,26.50
2018-05-21T10:51:05.013Z,26.50
2018-05-21T10:53:32.548Z,26.60
2018-05-21T10:56:00.063Z,26.60
2018-05-21T10:58:27.580Z,26.60
2018-05-21T11:00:55.116Z,26.60
2018-05-21T11:03:22.634Z,26.40
2018-05-21T11:05:50.182Z,26.30
2018-05-21T11:08:17.697Z,26.20
2018-05-21T11:10:45.240Z,26.20
2018-05-21T11:13:12.765Z,26.10
2018-05-21T11:15:40.295Z,26.20
2018-05-21T11:18:07.806Z,26.20
2018-05-21T11:20:35.322Z,26.30
2018-05-21T11:23:02.841Z,26.30
2018-05-21T11:25:30.359Z,26.30
2018-05-21T11:27:57.878Z,26.40
2018-05-21T11:30:25.415Z,26.30
2018-05-21T11:32:52.941Z,26.30
2018-05-21T11:35:20.461Z,26.20
2018-05-21T11:37:47.975Z,26.20
2018-05-21T11:40:15.497Z,26.20
2018-05-21T11:42:43.017Z,26.20
2018-05-21T11:45:10.527Z,26.20
2018-05-21T11:47:38.053Z,26.30
2018-05-21T11:50:05.575Z,26.20
2018-05-21T11:52:33.180Z,26.10
2018-05-21T11:55:00.634Z,26.10
2018-05-21T11:57:28.161Z,25.90
2018-05-21T11:59:55.671Z,26.00
2018-05-21T12:02:23.184Z,26.00
2018-05-21T12:04:51.468Z,26.10
2018-05-21T12:07:19.011Z,26.10
2018-05-21T12:09:46.531Z,26.10
2018-05-21T12:12:14.054Z,26.10
2018-05-21T12:14:41.586Z,26.10
2018-05-21T12:17:09.171Z,26.10
2018-05-21T12:19:36.692Z,26.00
2018-05-21T12:22:04.217Z,25.90
2018-05-21T12:24:31.736Z,25.90
2018-05-21T12:26:59.272Z,25.80
2018-05-21T12:29:26.791Z,25.90
2018-05-21T12:31:54.321Z,25.90
2018-05-21T12:34:21.836Z,25.90
2018-05-21T12:36:49.357Z,25.90
2018-05-21T12:39:16.869Z,25.80
2018-05-21T12:41:44.414Z,25.80
2018-05-21T12:44:11.936Z,25.80
2018-05-21T12:46:39.503Z,25.80
2018-05-21T12:49:07.023Z,25.70
2018-05-21T12:51:34.543Z,25.60
2018-05-21T12:54:02.055Z,25.60
2018-05-21T12:56:29.583Z,25.60
2018-05-21T12:58:57.112Z,25.60
2018-05-21T13:01:24.628Z,25.50
2018-05-21T13:03:52.147Z,25.60
2018-05-21T13:06:19.672Z,25.60
2018-05-21T13:08:47.184Z,25.60
2018-05-21T13:11:14.703Z,25.60
2018-05-21T13:13:42.210Z,25.60
2018-05-21T13:16:09.720Z,25.70
2018-05-21T13:18:37.232Z,25.70
2018-05-21T13:21:04.747Z,25.70
2018-05-21T13:23:32.271Z,25.70
2018-05-21T13:25:59.782Z,25.50
2018-05-21T13:28:27.304Z,25.50
2018-05-21T13:30:55.586Z,25.50
2018-05-21T13:33:23.105Z,25.50
2018-05-21T13:35:50.623Z,25.50
2018-05-21T13:38:18.136Z,25.40
2018-05-21T13:40:45.659Z,25.40
2018-05-21T13:43:13.255Z,25.30
2018-05-21T13:45:40.747Z,25.40
2018-05-21T13:48:08.263Z,25.30
2018-05-21T13:50:35.784Z,25.40
2018-05-21T13:53:03.296Z,25.40
2018-05-21T13:55:30.807Z,25.30
2018-05-21T13:57:58.333Z,25.20
2018-05-21T14:00:26.623Z,25.30
2018-05-21T14:02:54.148Z,25.30
2018-05-21T14:05:21.667Z,25.30
2018-05-21T14:07:49.199Z,25.30
2018-05-21T14:10:16.735Z,25.30
2018-05-21T14:12:44.251Z,25.30
2018-05-21T14:15:11.777Z,25.40
2018-05-21T14:17:39.297Z,25.40
2018-05-21T14:20:06.812Z,25.40
2018-05-21T14:22:34.326Z,25.40
2018-05-21T14:25:01.837Z,25.40
2018-05-21T14:27:29.379Z,25.30
2018-05-21T14:29:56.905Z,25.30
2018-05-21T14:32:25.192Z,25.30
2018-05-21T14:34:52.703Z,25.30
2018-05-21T14:37:20.228Z,25.30
2018-05-21T14:39:48.524Z,25.20
2018-05-21T14:42:16.040Z,25.20
2018-05-21T14:44:43.551Z,25.20
2018-05-21T14:47:11.081Z,25.20
2018-05-21T14:49:39.380Z,25.20
2018-05-21T14:52:06.904Z,25.20
2018-05-21T14:54:34.424Z,25.20
2018-05-21T14:57:02.446Z,25.30
2018-05-21T14:59:30.735Z,25.20
2018-05-21T15:01:58.315Z,25.20
2018-05-21T15:04:25.787Z,25.20
2018-05-21T15:06:53.306Z,25.10
2018-05-21T15:09:21.598Z,25.10
2018-05-21T15:11:49.124Z,25.00
2018-05-21T15:14:16.639Z,25.10
2018-05-21T15:16:44.158Z,25.10
2018-05-21T15:19:12.435Z,25.10
2018-05-21T15:21:39.952Z,25.10
2018-05-21T15:24:07.467Z,25.20
2018-05-21T15:26:34.983Z,25.20
2018-05-21T15:29:02.517Z,25.10
2018-05-21T15:31:30.056Z,25.10
2018-05-21T15:33:57.575Z,25.10
2018-05-21T15:36:25.090Z,25.10
2018-05-21T15:38:52.617Z,25.00
2018-05-21T15:41:20.138Z,25.00
2018-05-21T15:43:47.671Z,25.00
2018-05-21T15:46:15.186Z,25.10
2018-05-21T15:48:43.540Z,25.10
2018-05-21T15:51:11.904Z,25.10
2018-05-21T15:53:39.420Z,25.10
2018-05-21T15:56:06.941Z,25.00
2018-05-21T15:58:34.468Z,25.00
2018-05-21T16:01:01.984Z,25.00
2018-05-21T16:03:29.549Z,25.00
2018-05-21T16:05:57.063Z,24.90
2018-05-21T16:08:24.579Z,24.80
2018-05-21T16:10:52.087Z,24.80
2018-05-21T16:13:19.619Z,24.80
2018-05-21T16:15:47.136Z,24.80
2018-05-21T16:18:14.643Z,24.80
2018-05-21T16:20:42.162Z,24.80
2018-05-21T16:23:10.731Z,24.80
2018-05-21T16:25:38.238Z,24.80
2018-05-21T16:28:05.747Z,24.80
2018-05-21T16:30:33.262Z,24.80
2018-05-21T16:33:00.772Z,24.70
2018-05-21T16:35:28.333Z,24.70
2018-05-21T16:37:55.807Z,24.80
2018-05-21T16:40:23.342Z,24.70
2018-05-21T16:42:50.900Z,24.70
2018-05-21T16:45:18.412Z,24.70
2018-05-21T16:47:45.939Z,24.60
2018-05-21T16:50:13.459Z,24.60
2018-05-21T16:52:40.980Z,24.60
2018-05-21T16:55:08.503Z,24.60
2018-05-21T16:57:36.015Z,24.50
2018-05-21T17:00:03.588Z,24.50
2018-05-21T17:02:31.883Z,24.50
2018-05-21T17:04:59.409Z,24.40
2018-05-21T17:07:26.924Z,24.50
2018-05-21T17:09:54.436Z,24.40
2018-05-21T17:12:21.955Z,24.40
2018-05-21T17:14:49.470Z,24.30
2018-05-21T17:17:16.988Z,24.30
2018-05-21T17:19:44.503Z,24.30
2018-05-21T17:22:12.023Z,24.30
2018-05-21T17:24:39.551Z,24.20
2018-05-21T17:27:07.075Z,24.20
2018-05-21T17:29:34.587Z,24.10
2018-05-21T17:32:03.568Z,24.20
2018-05-21T17:34:31.126Z,24.10
2018-05-21T17:36:59.411Z,24.10
2018-05-21T17:39:26.952Z,24.00
2018-05-21T17:41:54.464Z,24.00
2018-05-21T17:44:21.980Z,24.00
2018-05-21T17:46:49.500Z,24.00
2018-05-21T17:49:17.014Z,23.90
2018-05-21T17:51:44.526Z,23.90
2018-05-21T17:54:12.056Z,23.80
2018-05-21T17:56:39.747Z,23.80
2018-05-21T17:59:07.268Z,23.80
2018-05-21T18:01:34.780Z,23.80
2018-05-21T18:04:02.315Z,23.70
2018-05-21T18:06:29.823Z,23.70
2018-05-21T18:08:57.396Z,23.60
2018-05-21T18:11:24.885Z,23.60
2018-05-21T18:13:52.399Z,23.60
2018-05-21T18:16:19.916Z,23.50
2018-05-21T18:18:47.515Z,23.40
2018-05-21T18:21:15.030Z,23.40
2018-05-21T18:23:42.519Z,23.30
2018-05-21T18:26:10.038Z,23.30
2018-05-21T18:28:37.561Z,23.20
2018-05-21T18:31:05.092Z,23.20
2018-05-21T18:33:32.612Z,23.20
2018-05-21T18:36:00.167Z,23.20
2018-05-21T18:38:27.688Z,23.10
2018-05-21T18:40:55.210Z,23.10
2018-05-21T18:43:22.736Z,23.00
2018-05-21T18:45:50.261Z,22.90
2018-05-21T18:48:17.904Z,22.90
2018-05-21T18:50:46.132Z,22.70
2018-05-21T18:53:13.658Z,22.70
2018-05-21T18:55:41.171Z,22.70
2018-05-21T18:58:08.703Z,22.60
2018-05-21T19:00:36.982Z,22.50
2018-05-21T19:03:04.495Z,22.50
2018-05-21T19:05:32.040Z,22.50
2018-05-21T19:07:59.551Z,22.40
2018-05-21T19:10:27.084Z,22.40
2018-05-21T19:12:54.596Z,22.30
2018-05-21T19:15:22.152Z,22.30
2018-05-21T19:17:49.669Z,22.20
2018-05-21T19:20:17.204Z,22.20
2018-05-21T19:22:45.016Z,22.10
2018-05-21T19:25:12.541Z,22.10
2018-05-21T19:27:40.065Z,22.00
2018-05-21T19:30:07.606Z,22.00
2018-05-21T19:32:35.124Z,21.90
2018-05-21T19:35:02.714Z,21.90
2018-05-21T19:37:30.178Z,21.80
2018-05-21T19:39:57.691Z,21.80
2018-05-21T19:42:25.205Z,21.70
2018-05-21T19:44:52.724Z,21.70
2018-05-21T19:47:20.239Z,21.70
2018-05-21T19:49:47.874Z,21.70
2018-05-21T19:52:15.411Z,21.60
2018-05-21T19:54:42.924Z,21.50
2018-05-21T19:57:10.447Z,21.50
2018-05-21T19:59:37.964Z,21.50
2018-05-21T20:02:05.479Z,21.40
2018-05-21T20:04:32.992Z,21.40
2018-05-21T20:07:00.538Z,21.40
2018-05-21T20:09:28.036Z,21.30
2018-05-21T20:11:55.552Z,21.30
2018-05-21T20:14:23.128Z,21.20
2018-05-21T20:16:51.379Z,21.20
2018-05-21T20:19:19.671Z,21.10
2018-05-21T20:21:47.193Z,21.10
2018-05-21T20:24:14.719Z,21.10
2018-05-21T20:26:42.223Z,21.10
2018-05-21T20:29:09.760Z,21.00
2018-05-21T20:31:37.280Z,21.00
2018-05-21T20:34:04.800Z,21.00
2018-05-21T20:36:32.335Z,21.00
2018-05-21T20:38:59.855Z,20.90
2018-05-21T20:41:27.401Z,20.90
2018-05-21T20:43:54.938Z,20.90
2018-05-21T20:46:22.468Z,20.80
2018-05-21T20:48:50.011Z,20.80
2018-05-21T20:51:17.556Z,20.80
2018-05-21T20:53:45.104Z,20.80
2018-05-21T20:56:12.631Z,20.70
2018-05-21T20:58:40.138Z,20.70
2018-05-21T21:01:07.655Z,20.70
2018-05-21T21:03:35.179Z,20.70
2018-05-21T21:06:02.701Z,20.60
2018-05-21T21:08:30.227Z,20.60
2018-05-21T21:10:57.802Z,20.50
2018-05-21T21:13:25.271Z,20.50
2018-05-21T21:15:52.779Z,20.50
2018-05-21T21:18:20.291Z,20.50
2018-05-21T21:20:47.817Z,20.40
2018-05-21T21:23:15.348Z,20.40
2018-05-21T21:25:42.867Z,20.40
2018-05-21T21:28:11.165Z,20.30
2018-05-21T21:30:38.692Z,20.30
2018-05-21T21:33:06.212Z,20.30
2018-05-21T21:35:33.739Z,20.30
2018-05-21T21:38:01.273Z,20.30
2018-05-21T21:40:28.790Z,20.20
2018-05-21T21:42:56.299Z,20.20
2018-05-21T21:45:23.820Z,20.20
2018-05-21T21:47:51.349Z,20.20
2018-05-21T21:50:18.871Z,20.20
2018-05-21T21:52:46.391Z,20.10
2018-05-21T21:55:13.915Z,20.00
2018-05-21T21:57:41.431Z,20.00
2018-05-21T22:00:08.949Z,20.00
2018-05-21T22:02:36.456Z,20.00
2018-05-21T22:05:03.971Z,20.00
2018-05-21T22:07:31.488Z,19.90
2018-05-21T22:09:59.009Z,19.90
2018-05-21T22:12:26.525Z,19.90
2018-05-21T22:14:54.263Z,19.90
2018-05-21T22:17:21.783Z,19.80
2018-05-21T22:19:49.299Z,19.80
2018-05-21T22:22:16.815Z,19.80
2018-05-21T22:24:44.330Z,19.70
2018-05-21T22:27:11.867Z,19.70
2018-05-21T22:29:39.388Z,19.70
2018-05-21T22:32:06.907Z,19.70
2018-05-21T22:34:34.433Z,19.70
2018-05-21T22:37:01.951Z,19.70
2018-05-21T22:39:29.502Z,19.70
2018-05-21T22:41:57.029Z,19.60
2018-05-21T22:44:24.543Z,19.60
2018-05-21T22:46:52.067Z,19.60
2018-05-21T22:49:20.348Z,19.60
2018-05-21T22:51:47.871Z,19.50
2018-05-21T22:54:27.100Z,19.50
2018-05-21T22:56:54.703Z,19.60
2018-05-21T22:59:22.160Z,19.50
2018-05-21T23:01:51.255Z,19.50
2018-05-21T23:04:18.773Z,19.50
2018-05-21T23:06:46.295Z,19.50
2018-05-21T23:09:13.811Z,19.40
2018-05-21T23:11:41.323Z,19.40
2018-05-21T23:14:08.832Z,19.40
2018-05-21T23:16:36.347Z,19.40
2018-05-21T23:19:03.860Z,19.30
2018-05-21T23:21:32.157Z,19.30
2018-05-21T23:23:59.677Z,19.30
2018-05-21T23:26:27.196Z,19.30
2018-05-21T23:28:54.735Z,19.20
2018-05-21T23:31:22.247Z,19.30
2018-05-21T23:33:49.773Z,19.20
2018-05-21T23:36:17.299Z,19.20
2018-05-21T23:38:44.848Z,19.20
2018-05-21T23:41:12.367Z,19.20
2018-05-21T23:43:39.904Z,19.20
2018-05-21T23:46:07.425Z,19.20
2018-05-21T23:48:34.961Z,19.10
2018-05-21T23:51:02.483Z,19.10
2018-05-21T23:53:30.039Z,19.10
2018-05-21T23:55:57.563Z,19.00
2018-05-21T23:58:25.097Z,19.00
